首页
METAR-TAF:

METAR-TAF

机场 :

Ludington, 密歇根州, 美国

纬度: 43-58N, 经度: 086-24W, 海拔: 197米

当前天气观测

该预报发布于11分钟前的13:35 UTC
风速7节,风向北转西北,有时为14节阵风
温度 -7°C
湿度 62%
气压 1027 hPa
能見度: 11.3公里
散云层高于2800英尺
散云层高于3600英尺
阴天层高于6000英尺

METAR: KLDM 121335Z AUTO 34007G14KT 7SM SCT028 SCT036 OVC060 M07/M13 A3033 RMK AO2 T10701127

时间: 08:46 (13:46 UTC)


TAF: 丢失

超过4000个机场的气象观测和天气预报(METAR&TAF报告)。

可查询的气象台以黄色和红色小点在地图上表示。

将鼠标移到小点上方,可查看气象台名称。

然后点击查看天气观测和预报。

如需切换地图:点击带黑十字的绿色按钮放大地图;点击带横线的绿色按钮缩小地图;或者点击绿色箭头查看邻近地区的地图。


METAR-TAF: